Date,TemperatureHighF,TemperatureAvgF,TemperatureLowF,DewpointHighF,DewpointAvgF,DewpointLowF,HumidityHigh,HumidityAvg,HumidityLow,PressureMaxIn,PressureMinIn,WindSpeedMaxMPH,WindSpeedAvgMPH,GustSpeedMaxMPH,PrecipitationSumIn
2013-8-1,88.6,77.5,67.5,71.5,66.9,62.8,87,71,54,30.20,30.06,6,1,6,0.00
2013-8-2,85.5,77.0,68.9,75.6,70.0,64.5,89,79,70,30.09,29.96,8,1,8,0.33
2013-8-3,83.7,77.9,73.8,73.6,70.7,68.9,85,79,69,30.22,30.00,6,2,8,0.00
2013-8-4,76.0,72.0,68.8,69.6,66.3,62.2,90,82,74,30.25,30.12,9,1,9,0.31
2013-8-5,84.4,76.4,70.9,75.9,71.6,68.1,92,85,74,30.15,29.93,6,1,6,0.00
2013-8-6,88.2,79.2,71.6,76.9,73.1,68.6,92,82,68,29.99,29.90,11,1,11,0.15
2013-8-7,85.3,78.1,72.0,76.5,72.2,67.2,92,82,72,30.04,29.89,13,1,13,0.56
2013-8-8,74.5,72.1,69.7,68.1,65.7,63.7,83,80,76,30.10,29.98,11,1,11,0.00
2013-8-9,74.2,71.3,68.8,69.4,66.1,64.4,87,84,81,30.21,30.08,5,0,5,0.05
2013-8-10,83.5,73.1,65.9,68.6,64.5,60.9,90,76,54,30.29,30.18,8,1,8,0.00
2013-8-11,86.9,75.1,63.9,70.8,64.9,57.6,82,71,58,30.23,30.11,6,1,6,0.03
2013-8-12,83.0,75.3,68.6,71.3,68.4,65.1,91,80,65,30.14,30.05,5,1,10,0.83
2013-8-13,80.5,73.4,68.4,67.3,63.4,60.1,86,72,54,30.23,30.11,8,1,8,0.00
2013-8-14,78.7,70.2,63.7,63.0,59.3,55.3,81,69,55,30.29,30.19,7,1,7,0.00
2013-8-15,74.0,68.1,63.7,62.5,58.4,54.8,76,71,64,30.22,30.10,6,1,6,0.00
2013-8-16,76.7,68.7,62.5,61.3,58.0,55.3,80,69,57,30.25,30.17,9,1,9,0.00
2013-8-17,78.3,70.4,58.5,61.7,57.9,53.4,85,66,51,30.29,30.20,8,1,8,0.00
2013-8-18,83.0,70.7,59.4,65.4,60.0,53.9,84,70,54,30.27,30.16,8,1,8,0.00
2013-8-19,85.5,74.4,64.6,68.0,63.9,59.1,86,71,55,30.21,30.10,7,1,7,0.00
2013-8-20,88.6,77.9,68.6,69.5,65.7,61.6,80,67,52,30.17,30.10,8,2,8,0.00
2013-8-21,90.2,79.1,69.7,71.4,67.5,62.5,79,68,53,30.18,30.10,8,2,8,0.00
2013-8-22,87.5,79.3,71.5,72.5,69.2,65.0,81,72,60,30.20,30.11,5,1,5,0.00
2013-8-23,91.3,80.3,71.6,73.5,69.2,66.2,87,70,50,30.20,30.11,7,1,7,0.00
2013-8-24,91.1,79.1,73.6,74.8,69.5,66.3,82,73,54,30.24,30.14,7,2,7,0.00
2013-8-25,92.5,83.4,72.5,74.8,70.8,66.1,82,67,52,30.31,30.21,8,2,8,0.00
2013-8-26,94.1,83.0,73.6,73.3,70.1,67.2,82,66,49,30.27,30.15,11,2,11,0.00
2013-8-27,94.3,82.3,73.1,71.2,67.5,64.3,79,62,43,30.18,30.09,10,2,10,0.00
2013-8-28,92.5,81.8,71.3,72.1,68.2,63.5,81,64,50,30.16,30.09,9,2,9,0.00
2013-8-29,94.7,84.1,74.7,74.2,70.7,68.1,81,65,48,30.15,30.04,9,2,9,0.00
2013-8-30,99.4,86.7,76.5,73.6,69.9,67.2,75,59,38,30.07,29.94,8,2,9,0.00
2013-8-31,89.1,82.8,77.0,76.0,70.9,67.9,75,67,55,29.98,29.89,8,1,8,0.00